createdAt,value
2018-12-13T00:01:46.603Z,11.30
2018-12-13T00:04:14.093Z,13.28
2018-12-13T00:06:41.610Z,12.10
2018-12-13T00:09:09.119Z,10.82
2018-12-13T00:11:36.718Z,14.15
2018-12-13T00:14:05.994Z,12.30
2018-12-13T00:16:33.482Z,12.50
2018-12-13T00:19:00.993Z,12.73
2018-12-13T00:21:28.502Z,14.35
2018-12-13T00:23:57.464Z,12.60
2018-12-13T00:26:25.847Z,11.80
2018-12-13T00:28:53.357Z,12.40
2018-12-13T00:31:20.850Z,11.08
2018-12-13T00:33:48.562Z,12.03
2018-12-13T00:36:16.070Z,11.80
2018-12-13T00:38:43.585Z,11.85
2018-12-13T00:41:11.107Z,11.53
2018-12-13T00:43:38.612Z,11.75
2018-12-13T00:46:06.087Z,11.28
2018-12-13T00:48:33.595Z,11.43
2018-12-13T00:51:01.077Z,10.50
2018-12-13T00:53:28.596Z,10.38
2018-12-13T00:55:56.069Z,11.83
2018-12-13T00:58:23.574Z,12.45
2018-12-13T01:00:51.073Z,12.85
2018-12-13T01:03:18.590Z,12.05
2018-12-13T01:05:46.088Z,11.00
2018-12-13T01:08:13.599Z,12.73
2018-12-13T01:10:41.083Z,11.68
2018-12-13T01:13:08.591Z,11.55
2018-12-13T01:15:36.141Z,11.70
2018-12-13T01:18:03.649Z,11.00
2018-12-13T01:20:31.222Z,11.30
2018-12-13T01:22:58.758Z,11.70
2018-12-13T01:25:26.299Z,10.72
2018-12-13T01:27:53.796Z,9.23
2018-12-13T01:30:21.507Z,11.10
2018-12-13T01:32:49.056Z,12.55
2018-12-13T01:35:16.544Z,10.72
2018-12-13T01:37:44.051Z,11.22
2018-12-13T01:40:11.562Z,11.03
2018-12-13T01:42:43.942Z,11.08
2018-12-13T01:45:11.854Z,12.00
2018-12-13T01:54:42.533Z,12.25
2018-12-13T01:57:10.784Z,12.05
2018-12-13T01:59:39.484Z,12.45
2018-12-13T02:02:07.831Z,12.85
2018-12-13T02:04:35.452Z,12.85
2018-12-13T02:07:03.561Z,14.55
2018-12-13T02:24:10.017Z,14.80
2018-12-13T02:26:38.073Z,14.38
2018-12-13T02:29:05.662Z,13.68
2018-12-13T02:31:33.797Z,13.90
2018-12-13T02:39:32.975Z,15.23
2018-12-13T02:42:00.579Z,14.60
2018-12-13T02:44:29.068Z,14.93
2018-12-13T02:54:50.567Z,16.20
2018-12-13T02:57:18.126Z,15.70
2018-12-13T02:59:45.950Z,15.35
2018-12-13T03:02:20.079Z,14.00
2018-12-13T03:22:10.656Z,21.40
2018-12-13T03:24:41.348Z,17.62
2018-12-13T03:27:08.944Z,17.35
2018-12-13T03:29:39.383Z,17.37
2018-12-13T03:32:08.037Z,16.52
2018-12-13T03:34:37.017Z,16.20
2018-12-13T03:37:08.023Z,18.85
2018-12-13T03:39:36.875Z,18.50
2018-12-13T03:42:09.516Z,16.15
2018-12-13T03:44:42.247Z,16.67
2018-12-13T03:47:09.865Z,17.30
2018-12-13T03:49:37.465Z,17.23
2018-12-13T03:52:08.815Z,17.55
2018-12-13T03:54:36.463Z,16.85
2018-12-13T03:57:04.326Z,15.58
2018-12-13T03:59:31.928Z,16.60
2018-12-13T04:04:49.981Z,15.98
2018-12-13T04:07:18.262Z,16.93
2018-12-13T04:09:45.840Z,15.83
2018-12-13T04:12:14.628Z,16.27
2018-12-13T04:15:01.643Z,17.55
2018-12-13T04:17:37.164Z,18.02
2018-12-13T04:20:05.210Z,17.80
2018-12-13T04:22:33.703Z,15.20
2018-12-13T04:27:52.744Z,15.10
2018-12-13T04:30:23.064Z,14.80
2018-12-13T04:32:52.569Z,17.05
2018-12-13T04:35:21.135Z,17.48
2018-12-13T04:37:49.278Z,16.77
2018-12-13T04:40:17.298Z,15.93
2018-12-13T04:45:37.136Z,14.60
2018-12-13T04:50:58.941Z,16.10
2018-12-13T04:53:27.248Z,14.18
2018-12-13T04:55:55.398Z,13.08
2018-12-13T04:58:25.326Z,13.70
2018-12-13T05:00:55.184Z,12.58
2018-12-13T05:03:25.385Z,12.35
2018-12-13T05:17:26.927Z,10.85
2018-12-13T05:19:55.966Z,10.90
2018-12-13T05:22:24.881Z,12.43
2018-12-13T05:24:52.749Z,11.30
2018-12-13T05:30:16.279Z,11.45
2018-12-13T05:38:25.231Z,11.28
2018-12-13T05:40:56.823Z,10.90
2018-12-13T05:43:25.864Z,9.70
2018-12-13T05:45:54.030Z,10.68
2018-12-13T05:56:53.285Z,10.25
2018-12-13T05:59:21.847Z,11.15
2018-12-13T06:01:49.462Z,11.65
2018-12-13T06:19:40.838Z,11.63
2018-12-13T06:22:09.089Z,10.32
2018-12-13T06:24:36.671Z,10.60
2018-12-13T06:27:05.453Z,9.50
2018-12-13T06:36:53.915Z,9.73
2018-12-13T06:39:21.491Z,10.63
2018-12-13T06:41:56.588Z,12.55
2018-12-13T06:44:24.225Z,12.80
2018-12-13T07:08:41.241Z,14.15
2018-12-13T07:11:08.926Z,15.48
2018-12-13T07:13:38.228Z,13.35
2018-12-13T07:16:05.817Z,16.32
2018-12-13T07:18:33.376Z,13.30
2018-12-13T07:23:34.878Z,14.87
2018-12-13T07:26:02.525Z,14.80
2018-12-13T07:28:30.171Z,15.05
2018-12-13T07:43:37.753Z,17.00
2018-12-13T07:51:46.546Z,14.38
2018-12-13T07:54:14.156Z,15.03
2018-12-13T07:56:46.462Z,14.15
2018-12-13T07:59:14.142Z,15.38
2018-12-13T08:01:44.909Z,15.40
2018-12-13T08:04:12.473Z,14.55
2018-12-13T08:06:39.996Z,13.68
2018-12-13T08:09:07.658Z,16.65
2018-12-13T08:11:35.234Z,15.20
2018-12-13T08:14:02.875Z,16.95
2018-12-13T08:16:30.481Z,15.18
2018-12-13T08:32:50.408Z,12.47
2018-12-13T08:35:20.884Z,15.23
2018-12-13T08:37:49.136Z,16.45
2018-12-13T08:40:18.878Z,14.55
2018-12-13T08:42:56.935Z,12.85
2018-12-13T08:52:16.412Z,13.78
2018-12-13T08:57:35.379Z,14.85
2018-12-13T09:00:03.951Z,13.75
2018-12-13T09:16:31.413Z,11.75
2018-12-13T09:18:56.350Z,11.95
2018-12-13T09:21:27.465Z,11.30
2018-12-13T09:23:57.363Z,12.40
2018-12-13T09:26:26.258Z,11.33
2018-12-13T09:29:34.935Z,12.53
2018-12-13T09:32:05.130Z,16.25
2018-12-13T09:34:34.330Z,11.75
2018-12-13T09:37:01.979Z,13.15
2018-12-13T09:39:30.113Z,12.15
2018-12-13T09:41:58.892Z,11.85
2018-12-13T09:44:26.461Z,11.93
2018-12-13T09:46:54.924Z,11.50
2018-12-13T09:49:22.508Z,12.20
2018-12-13T09:51:50.241Z,12.60
2018-12-13T09:54:17.815Z,12.37
2018-12-13T09:56:46.051Z,13.00
2018-12-13T09:59:17.455Z,11.73
2018-12-13T10:01:45.037Z,12.75
2018-12-13T10:04:15.429Z,12.95
2018-12-13T10:06:42.992Z,12.68
2018-12-13T10:09:12.029Z,11.00
2018-12-13T10:11:39.709Z,9.55
2018-12-13T10:14:07.367Z,11.40
2018-12-13T10:16:34.952Z,11.12
2018-12-13T10:19:02.977Z,11.50
2018-12-13T10:21:30.928Z,12.40
2018-12-13T10:23:58.801Z,11.75
2018-12-13T10:26:26.635Z,12.23
2018-12-13T10:28:54.574Z,12.63
2018-12-13T10:31:22.130Z,11.15
2018-12-13T10:33:49.763Z,11.65
2018-12-13T10:36:17.930Z,11.90
2018-12-13T10:38:53.056Z,13.38
2018-12-13T10:41:20.512Z,12.37
2018-12-13T10:43:48.104Z,12.88
2018-12-13T10:46:15.637Z,11.20
2018-12-13T10:48:44.019Z,10.90
2018-12-13T10:51:15.296Z,12.03
2018-12-13T10:53:45.709Z,11.53
2018-12-13T10:56:13.821Z,11.03
2018-12-13T10:58:41.992Z,12.25
2018-12-13T11:01:27.165Z,12.43
2018-12-13T11:03:58.796Z,12.63
2018-12-13T11:06:26.727Z,12.05
2018-12-13T11:08:59.384Z,12.85
2018-12-13T11:11:24.495Z,11.55
2018-12-13T11:13:54.213Z,13.53
2018-12-13T11:16:22.103Z,12.35
2018-12-13T11:18:49.644Z,13.15
2018-12-13T11:21:17.631Z,10.60
2018-12-13T11:23:45.450Z,12.13
2018-12-13T11:26:13.308Z,12.55
2018-12-13T11:28:54.169Z,12.40
2018-12-13T11:31:32.645Z,11.85
2018-12-13T11:34:00.199Z,13.13
2018-12-13T11:36:28.154Z,12.25
2018-12-13T11:38:55.695Z,11.48
2018-12-13T11:41:23.243Z,13.00
2018-12-13T11:43:50.765Z,11.60
2018-12-13T11:46:18.343Z,12.30
2018-12-13T11:48:45.851Z,10.28
2018-12-13T11:51:13.406Z,12.10
2018-12-13T11:53:43.150Z,12.43
2018-12-13T11:56:13.035Z,12.35
2018-12-13T11:58:40.603Z,11.95
2018-12-13T12:01:08.157Z,11.88
2018-12-13T12:03:35.702Z,12.00
2018-12-13T12:06:03.355Z,12.05
2018-12-13T12:08:30.924Z,12.20
2018-12-13T12:10:58.526Z,11.83
2018-12-13T12:13:26.080Z,11.28
2018-12-13T12:15:53.610Z,13.70
2018-12-13T12:18:22.093Z,10.58
2018-12-13T12:20:52.115Z,11.78
2018-12-13T12:23:19.636Z,11.10
2018-12-13T12:25:48.988Z,10.68
2018-12-13T12:28:17.243Z,10.10
2018-12-13T12:30:47.357Z,11.03
2018-12-13T12:33:14.900Z,10.75
2018-12-13T12:35:42.520Z,10.43
2018-12-13T12:38:11.310Z,10.20
2018-12-13T12:40:39.600Z,10.38
2018-12-13T12:43:07.181Z,11.22
2018-12-13T12:45:39.661Z,9.80
2018-12-13T12:48:14.812Z,9.98
2018-12-13T12:50:42.367Z,10.58
2018-12-13T12:53:17.803Z,9.60
2018-12-13T12:55:45.368Z,10.50
2018-12-13T12:58:12.902Z,10.53
2018-12-13T13:00:42.265Z,9.50
2018-12-13T13:03:10.150Z,10.30
2018-12-13T13:05:41.017Z,11.57
2018-12-13T13:08:08.702Z,11.28
2018-12-13T13:10:39.364Z,10.60
2018-12-13T13:13:07.013Z,11.53
2018-12-13T13:15:34.620Z,10.98
2018-12-13T13:18:02.622Z,10.30
2018-12-13T13:20:31.825Z,9.60
2018-12-13T13:22:59.377Z,10.55
2018-12-13T13:28:18.528Z,10.15
2018-12-13T13:30:46.125Z,12.75
2018-12-13T13:33:15.613Z,11.45
2018-12-13T13:35:45.190Z,12.37
2018-12-13T13:38:15.473Z,11.88
2018-12-13T13:40:45.646Z,10.90
2018-12-13T13:43:13.994Z,11.08
2018-12-13T13:45:42.127Z,11.73
2018-12-13T13:48:12.303Z,11.03
2018-12-13T13:53:43.450Z,12.25
2018-12-13T13:56:11.767Z,11.90
2018-12-13T13:58:40.137Z,11.70
2018-12-13T14:01:19.020Z,12.03
2018-12-13T14:03:47.681Z,12.73
2018-12-13T14:06:17.694Z,12.20
2018-12-13T14:08:46.346Z,11.75
2018-12-13T14:11:14.998Z,10.93
2018-12-13T14:13:49.507Z,10.78
2018-12-13T14:16:17.126Z,10.50
2018-12-13T14:18:46.853Z,9.50
2018-12-13T14:21:15.703Z,9.93
2018-12-13T14:23:43.673Z,9.65
2018-12-13T14:26:14.870Z,10.15
2018-12-13T14:28:45.998Z,9.28
2018-12-13T14:31:15.027Z,10.50
2018-12-13T14:39:26.288Z,9.30
2018-12-13T14:41:53.876Z,10.35
2018-12-13T14:44:21.539Z,9.15
2018-12-13T14:46:52.508Z,9.60
2018-12-13T14:49:20.099Z,9.60
2018-12-13T14:51:48.959Z,8.48
2018-12-13T14:54:16.649Z,8.55
2018-12-13T14:56:47.824Z,9.38
2018-12-13T14:59:15.677Z,8.88
2018-12-13T15:04:36.660Z,9.78
2018-12-13T15:07:05.745Z,8.60
2018-12-13T15:09:36.127Z,8.98
2018-12-13T15:12:13.509Z,8.25
2018-12-13T15:14:44.972Z,8.25
2018-12-13T15:17:14.994Z,7.62
2018-12-13T15:19:43.838Z,9.63
2018-12-13T15:22:13.098Z,8.65
2018-12-13T15:30:22.760Z,8.78
2018-12-13T15:32:50.514Z,9.15
2018-12-13T15:35:19.957Z,7.05
2018-12-13T15:40:39.885Z,10.50
2018-12-13T15:43:07.576Z,8.40
2018-12-13T15:45:35.343Z,9.75
2018-12-13T15:48:03.125Z,10.85
2018-12-13T15:50:30.758Z,12.28
2018-12-13T15:53:01.229Z,8.78
2018-12-13T15:55:28.990Z,10.72
2018-12-13T15:57:57.056Z,10.10
2018-12-13T16:58:26.330Z,10.45
2018-12-13T17:12:17.646Z,10.15
2018-12-13T17:14:45.223Z,11.03
2018-12-13T17:17:12.789Z,11.30
2018-12-13T17:19:41.085Z,11.10
2018-12-13T17:30:40.911Z,10.32
2018-12-13T17:33:11.558Z,9.45
2018-12-13T17:35:39.536Z,9.75
2018-12-13T17:38:07.888Z,10.23
2018-12-13T17:40:38.837Z,11.33
2018-12-13T17:43:10.393Z,12.40
2018-12-13T18:05:25.411Z,12.80
2018-12-13T18:10:44.434Z,12.75
2018-12-13T18:13:12.155Z,15.43
2018-12-13T18:15:46.429Z,12.70
2018-12-13T18:18:16.886Z,13.83
2018-12-13T18:20:49.103Z,13.68
2018-12-13T18:37:22.221Z,18.17
2018-12-13T18:39:49.827Z,13.78
2018-12-13T18:44:50.545Z,12.25
2018-12-13T18:58:52.139Z,14.13
2018-12-13T19:01:34.847Z,14.30
2018-12-13T19:16:54.883Z,14.95
2018-12-13T19:19:24.199Z,14.05
2018-12-13T19:38:44.896Z,14.00
2018-12-13T19:47:35.007Z,15.30
2018-12-13T20:03:37.359Z,15.98
2018-12-13T20:08:55.232Z,16.55
2018-12-13T20:11:33.081Z,16.02
2018-12-13T20:14:07.303Z,15.48
2018-12-13T20:16:37.440Z,15.58
2018-12-13T20:34:36.282Z,13.85
2018-12-13T20:37:04.310Z,17.57
2018-12-13T20:39:33.585Z,16.70
2018-12-13T20:42:01.264Z,16.40
2018-12-13T20:53:00.477Z,15.75
2018-12-13T20:55:28.957Z,17.02
2018-12-13T20:58:07.988Z,16.45
2018-12-13T21:00:36.772Z,16.25
2018-12-13T21:03:08.369Z,15.13
2018-12-13T21:05:36.046Z,16.65
2018-12-13T21:08:08.588Z,17.05
2018-12-13T21:10:38.946Z,16.57
2018-12-13T21:13:06.683Z,16.35
2018-12-13T21:15:34.817Z,16.02
2018-12-13T21:18:05.568Z,15.88
2018-12-13T21:20:33.504Z,15.48
2018-12-13T21:26:02.584Z,14.33
2018-12-13T21:28:30.382Z,14.68
2018-12-13T21:30:58.903Z,13.13
2018-12-13T21:33:26.459Z,15.13
2018-12-13T21:35:54.669Z,13.38
2018-12-13T21:38:22.473Z,15.58
2018-12-13T21:40:50.106Z,14.20
2018-12-13T21:43:46.834Z,14.07
2018-12-13T22:11:31.124Z,13.62
2018-12-13T22:14:00.527Z,12.03
2018-12-13T23:14:10.816Z,12.63
2018-12-13T23:16:38.515Z,13.83
2018-12-13T23:19:15.908Z,12.88
2018-12-13T23:21:46.448Z,13.88
2018-12-13T23:24:14.078Z,13.48
2018-12-13T23:29:32.474Z,11.60
2018-12-13T23:32:01.693Z,11.73
2018-12-13T23:34:37.661Z,12.70
2018-12-13T23:41:18.355Z,10.65
2018-12-13T23:58:23.626Z,12.68
